createdAt,value
2018-08-18T00:02:27.823Z,13.80
2018-08-18T00:04:55.880Z,13.72
2018-08-18T00:07:23.876Z,13.23
2018-08-18T00:09:52.963Z,14.20
2018-08-18T00:12:26.564Z,16.00
2018-08-18T00:14:54.608Z,14.55
2018-08-18T00:17:22.655Z,14.63
2018-08-18T00:19:51.828Z,14.15
2018-08-18T00:22:19.905Z,18.57
2018-08-18T00:24:53.502Z,15.83
2018-08-18T00:27:22.478Z,16.45
2018-08-18T00:29:50.552Z,16.95
2018-08-18T00:32:18.589Z,18.90
2018-08-18T00:34:53.399Z,15.70
2018-08-18T00:37:22.216Z,15.93
2018-08-18T00:39:50.220Z,17.80
2018-08-18T00:42:18.257Z,15.63
2018-08-18T00:44:46.285Z,16.80
2018-08-18T00:47:14.307Z,17.37
2018-08-18T00:49:42.323Z,18.42
2018-08-18T00:52:10.353Z,18.10
2018-08-18T00:54:38.412Z,17.15
2018-08-18T00:57:20.968Z,19.40
2018-08-18T00:59:49.016Z,18.77
2018-08-18T01:02:17.040Z,17.98
2018-08-18T01:04:50.581Z,18.92
2018-08-18T01:07:18.613Z,19.27
2018-08-18T01:09:46.652Z,18.45
2018-08-18T01:12:14.749Z,18.30
2018-08-18T01:14:42.807Z,18.30
2018-08-18T01:17:10.772Z,19.48
2018-08-18T01:19:38.831Z,18.17
2018-08-18T01:22:08.191Z,19.98
2018-08-18T01:24:36.228Z,19.30
2018-08-18T01:27:04.658Z,20.43
2018-08-18T01:29:32.661Z,20.02
2018-08-18T01:32:00.700Z,19.97
2018-08-18T01:34:28.712Z,19.75
2018-08-18T01:37:00.303Z,20.97
2018-08-18T01:39:28.315Z,20.27
2018-08-18T01:41:56.348Z,21.42
2018-08-18T01:44:25.710Z,21.57
2018-08-18T01:46:54.492Z,22.52
2018-08-18T01:49:25.727Z,22.45
2018-08-18T01:51:53.789Z,22.55
2018-08-18T01:54:21.839Z,22.62
2018-08-18T01:56:51.108Z,23.98
2018-08-18T01:59:19.448Z,22.87
2018-08-18T02:01:47.844Z,23.45
2018-08-18T02:04:17.639Z,23.85
2018-08-18T02:06:45.684Z,23.80
2018-08-18T02:09:13.707Z,23.97
2018-08-18T02:11:42.089Z,23.27
2018-08-18T02:14:17.287Z,24.60
2018-08-18T02:16:45.333Z,25.27
2018-08-18T02:19:13.395Z,24.43
2018-08-18T02:21:41.422Z,22.98
2018-08-18T02:24:09.452Z,24.50
2018-08-18T02:26:37.489Z,23.45
2018-08-18T02:29:05.547Z,25.08
2018-08-18T02:31:34.122Z,25.60
2018-08-18T02:34:02.187Z,27.50
2018-08-18T02:36:30.204Z,24.70
2018-08-18T02:38:59.561Z,24.93
2018-08-18T02:41:29.037Z,23.62
2018-08-18T02:43:57.856Z,24.40
2018-08-18T02:46:34.388Z,24.43
2018-08-18T02:49:03.105Z,25.40
2018-08-18T02:51:31.904Z,23.80
2018-08-18T02:54:00.283Z,24.37
2018-08-18T02:56:33.675Z,24.72
2018-08-18T02:59:03.064Z,23.73
2018-08-18T03:01:36.033Z,23.73
2018-08-18T03:04:06.079Z,24.27
2018-08-18T03:06:34.141Z,25.10
2018-08-18T03:09:03.264Z,24.90
2018-08-18T03:11:31.490Z,26.17
2018-08-18T03:13:59.528Z,28.73
2018-08-18T03:16:27.555Z,27.87
2018-08-18T03:18:56.540Z,28.83
2018-08-18T03:21:30.723Z,30.30
2018-08-18T03:24:13.162Z,31.23
2018-08-18T03:26:42.440Z,29.70
2018-08-18T03:29:11.017Z,29.55
2018-08-18T03:31:39.636Z,27.35
2018-08-18T03:34:08.314Z,28.43
2018-08-18T03:36:37.436Z,26.60
2018-08-18T03:39:11.933Z,26.17
2018-08-18T03:41:39.967Z,27.53
2018-08-18T03:44:08.016Z,28.73
2018-08-18T03:46:36.072Z,28.55
2018-08-18T03:49:04.139Z,27.85
2018-08-18T03:51:37.753Z,27.50
2018-08-18T03:54:05.788Z,25.37
2018-08-18T03:56:33.806Z,26.07
2018-08-18T03:59:01.833Z,25.43
2018-08-18T04:01:42.853Z,24.82
2018-08-18T04:04:11.992Z,26.07
2018-08-18T04:06:41.075Z,24.80
2018-08-18T04:09:12.531Z,24.07
2018-08-18T04:11:40.725Z,23.77
2018-08-18T04:14:08.984Z,25.45
2018-08-18T04:16:40.061Z,25.80
2018-08-18T04:19:08.129Z,26.57
2018-08-18T04:21:36.173Z,27.27
2018-08-18T04:24:04.220Z,26.97
2018-08-18T04:26:32.247Z,26.75
2018-08-18T04:29:00.319Z,28.92
2018-08-18T04:31:30.703Z,25.33
2018-08-18T04:34:00.684Z,27.60
2018-08-18T04:36:28.722Z,30.25
2018-08-18T04:38:56.800Z,28.07
2018-08-18T04:41:24.820Z,25.65
2018-08-18T04:43:52.995Z,27.37
2018-08-18T04:46:20.957Z,26.73
2018-08-18T04:48:48.975Z,27.48
2018-08-18T04:51:17.027Z,25.25
2018-08-18T04:53:45.084Z,30.82
2018-08-18T04:56:13.172Z,25.30
2018-08-18T04:58:41.548Z,25.45
2018-08-18T05:01:09.591Z,24.40
2018-08-18T05:03:52.481Z,21.83
2018-08-18T05:06:25.096Z,22.45
2018-08-18T05:08:53.172Z,22.33
2018-08-18T05:11:21.179Z,22.27
2018-08-18T05:13:49.286Z,22.55
2018-08-18T05:16:17.564Z,23.30
2018-08-18T05:18:45.641Z,23.40
2018-08-18T05:21:13.650Z,22.20
2018-08-18T05:23:41.679Z,22.20
2018-08-18T05:26:09.720Z,22.93
2018-08-18T05:28:37.756Z,21.33
2018-08-18T05:31:05.776Z,21.20
2018-08-18T05:33:33.837Z,20.37
2018-08-18T05:36:01.907Z,20.15
2018-08-18T05:38:29.918Z,18.70
2018-08-18T05:40:57.935Z,18.57
2018-08-18T05:43:25.956Z,17.95
2018-08-18T05:45:54.012Z,19.40
2018-08-18T05:48:22.051Z,15.83
2018-08-18T05:50:50.085Z,16.10
2018-08-18T05:53:21.613Z,15.95
2018-08-18T05:55:50.083Z,14.50
2018-08-18T05:58:18.120Z,13.60
2018-08-18T06:00:46.425Z,14.40
2018-08-18T06:03:16.472Z,14.23
2018-08-18T06:05:44.539Z,13.88
2018-08-18T06:08:12.564Z,15.35
2018-08-18T06:10:40.664Z,12.50
2018-08-18T06:13:16.882Z,12.80
2018-08-18T06:16:01.875Z,12.70
2018-08-18T06:18:29.914Z,12.25
2018-08-18T06:20:57.944Z,12.43
2018-08-18T06:23:25.967Z,11.18
2018-08-18T06:25:54.001Z,10.58
2018-08-18T06:28:22.045Z,10.53
2018-08-18T06:30:50.066Z,9.40
2018-08-18T06:33:18.087Z,9.97
2018-08-18T06:35:46.117Z,10.55
2018-08-18T06:38:14.136Z,12.15
2018-08-18T06:40:46.429Z,10.10
2018-08-18T06:43:14.449Z,9.80
2018-08-18T06:45:42.508Z,8.53
2018-08-18T06:48:17.496Z,8.35
2018-08-18T06:50:46.527Z,7.62
2018-08-18T06:53:14.595Z,6.33
2018-08-18T06:55:42.632Z,5.90
2018-08-18T06:58:10.704Z,7.42
2018-08-18T07:00:38.923Z,6.43
2018-08-18T07:03:18.587Z,8.05
2018-08-18T07:05:46.696Z,6.40
2018-08-18T07:08:14.635Z,6.75
2018-08-18T07:10:42.668Z,7.75
2018-08-18T07:13:11.360Z,8.08
2018-08-18T07:15:45.908Z,6.90
2018-08-18T07:18:14.864Z,6.00
2018-08-18T07:20:43.168Z,7.33
2018-08-18T07:23:11.195Z,7.05
2018-08-18T07:25:48.483Z,6.33
2018-08-18T07:28:19.827Z,8.35
2018-08-18T07:30:47.877Z,7.10
2018-08-18T07:33:15.884Z,7.45
2018-08-18T07:35:43.937Z,6.00
2018-08-18T07:38:11.984Z,8.00
2018-08-18T07:40:40.912Z,7.78
2018-08-18T07:43:09.209Z,6.67
2018-08-18T07:45:37.911Z,6.42
2018-08-18T07:48:06.879Z,5.53
2018-08-18T07:50:34.855Z,7.00
2018-08-18T07:53:03.374Z,6.30
2018-08-18T07:55:31.613Z,7.33
2018-08-18T07:58:05.211Z,7.10
2018-08-18T08:00:34.489Z,7.53
2018-08-18T08:03:02.624Z,8.10
2018-08-18T08:05:30.986Z,7.83
2018-08-18T08:07:59.037Z,9.80
2018-08-18T08:10:27.093Z,6.33
2018-08-18T08:12:55.418Z,10.55
2018-08-18T08:15:23.410Z,6.90
2018-08-18T08:17:51.425Z,8.53
2018-08-18T08:20:19.469Z,7.95
2018-08-18T08:22:49.306Z,8.10
2018-08-18T08:25:17.413Z,7.00
2018-08-18T08:27:46.520Z,9.58
2018-08-18T08:30:14.850Z,6.80
2018-08-18T08:32:42.889Z,9.83
2018-08-18T08:35:11.107Z,7.40
2018-08-18T08:37:39.148Z,6.28
2018-08-18T08:40:09.306Z,7.60
2018-08-18T08:42:37.392Z,6.12
2018-08-18T08:45:06.468Z,5.60
2018-08-18T08:47:34.508Z,5.90
2018-08-18T08:50:02.520Z,7.08
2018-08-18T08:52:35.249Z,5.95
2018-08-18T08:55:03.272Z,9.83
2018-08-18T08:57:32.174Z,7.22
2018-08-18T09:00:00.215Z,8.15
2018-08-18T09:02:30.238Z,8.08
2018-08-18T09:04:59.860Z,8.03
2018-08-18T09:07:30.871Z,7.03
2018-08-18T09:09:59.813Z,6.53
2018-08-18T09:12:27.856Z,8.30
2018-08-18T09:14:55.953Z,8.23
2018-08-18T09:17:24.015Z,8.65
2018-08-18T09:19:52.046Z,8.53
2018-08-18T09:22:20.095Z,7.70
2018-08-18T09:24:48.136Z,9.15
2018-08-18T09:27:16.189Z,8.50
2018-08-18T09:29:47.084Z,7.60
2018-08-18T09:32:15.968Z,9.45
2018-08-18T09:34:49.615Z,8.38
2018-08-18T09:37:17.665Z,9.55
2018-08-18T09:39:45.920Z,7.67
2018-08-18T09:42:14.697Z,7.55
2018-08-18T09:44:44.435Z,7.42
2018-08-18T09:47:12.688Z,7.03
2018-08-18T09:49:40.719Z,5.62
2018-08-18T09:52:10.602Z,6.58
2018-08-18T09:54:38.627Z,7.05
2018-08-18T09:57:06.660Z,6.40
2018-08-18T09:59:34.707Z,6.75
2018-08-18T10:02:02.729Z,6.62
2018-08-18T10:04:30.780Z,5.70
2018-08-18T10:06:58.813Z,4.42
2018-08-18T10:09:26.839Z,6.55
2018-08-18T10:11:55.038Z,4.20
2018-08-18T10:14:23.083Z,4.40
2018-08-18T10:16:51.115Z,4.60
2018-08-18T10:19:19.141Z,4.90
2018-08-18T10:21:47.411Z,4.12
2018-08-18T10:24:15.573Z,3.87
2018-08-18T10:26:50.679Z,7.60
2018-08-18T10:29:21.288Z,4.60
2018-08-18T10:31:50.352Z,4.67
2018-08-18T10:34:19.347Z,3.73
2018-08-18T10:36:56.528Z,6.47
2018-08-18T10:39:24.554Z,3.85
2018-08-18T10:42:14.767Z,3.47
2018-08-18T10:44:49.283Z,4.58
2018-08-18T10:47:18.583Z,4.60
2018-08-18T10:49:58.344Z,5.30
2018-08-18T10:52:38.594Z,4.23
2018-08-18T10:55:08.027Z,5.50
2018-08-18T10:57:48.788Z,3.87
2018-08-18T11:00:18.076Z,5.65
2018-08-18T11:02:47.260Z,5.60
2018-08-18T11:05:15.953Z,7.20
2018-08-18T11:07:50.681Z,6.70
2018-08-18T11:10:18.692Z,6.30
2018-08-18T11:12:46.732Z,5.58
2018-08-18T11:15:14.742Z,5.70
2018-08-18T11:17:42.748Z,5.72
2018-08-18T11:20:18.519Z,4.95
2018-08-18T11:22:50.161Z,4.07
2018-08-18T11:25:19.453Z,4.80
2018-08-18T11:27:47.724Z,5.37
2018-08-18T11:30:15.788Z,5.50
2018-08-18T11:32:43.808Z,3.60
2018-08-18T11:35:11.860Z,5.87
2018-08-18T11:37:53.132Z,5.65
2018-08-18T11:40:21.821Z,4.90
2018-08-18T11:42:50.217Z,5.92
2018-08-18T11:45:19.486Z,6.08
2018-08-18T11:48:29.017Z,7.42
2018-08-18T11:50:57.342Z,5.90
2018-08-18T11:53:25.340Z,5.73
2018-08-18T11:55:53.421Z,4.00
2018-08-18T11:58:23.351Z,4.10
2018-08-18T12:00:54.706Z,5.23
2018-08-18T12:03:25.143Z,4.67
2018-08-18T12:05:54.252Z,5.10
2018-08-18T12:08:23.525Z,3.60
2018-08-18T12:10:52.670Z,2.60
2018-08-18T12:13:31.551Z,5.50
2018-08-18T12:16:04.523Z,3.63
2018-08-18T12:18:33.124Z,5.57
2018-08-18T12:21:02.392Z,4.10
2018-08-18T12:23:30.916Z,4.28
2018-08-18T12:26:06.147Z,4.40
2018-08-18T12:28:39.679Z,6.22
2018-08-18T12:31:09.648Z,3.40
2018-08-18T12:33:37.652Z,4.40
2018-08-18T12:36:05.717Z,4.10
2018-08-18T12:38:34.188Z,5.70
2018-08-18T12:41:03.055Z,5.75
2018-08-18T12:43:36.241Z,3.77
2018-08-18T12:46:06.000Z,4.60
2018-08-18T12:48:35.128Z,4.17
2018-08-18T12:51:03.991Z,4.92
2018-08-18T12:53:37.596Z,5.40
2018-08-18T12:56:06.051Z,3.90
2018-08-18T12:58:34.184Z,4.58
2018-08-18T13:01:02.420Z,3.55
2018-08-18T13:03:30.560Z,3.77
2018-08-18T13:05:58.599Z,3.75
2018-08-18T13:08:26.636Z,4.37
2018-08-18T13:10:55.055Z,5.58
2018-08-18T13:13:23.333Z,3.97
2018-08-18T13:15:53.972Z,3.45
2018-08-18T13:18:22.283Z,5.78
2018-08-18T13:20:51.657Z,5.45
2018-08-18T13:23:21.352Z,3.58
2018-08-18T13:25:49.747Z,3.65
2018-08-18T13:28:17.807Z,4.72
2018-08-18T13:30:45.841Z,4.03
2018-08-18T13:33:13.938Z,4.70
2018-08-18T13:35:41.936Z,4.42
2018-08-18T13:38:29.663Z,4.42
2018-08-18T13:40:57.676Z,4.20
2018-08-18T13:43:38.254Z,4.90
2018-08-18T13:46:06.783Z,4.25
2018-08-18T13:51:25.377Z,3.55
2018-08-18T13:53:54.864Z,4.45
2018-08-18T13:56:24.751Z,3.87
2018-08-18T13:58:53.798Z,3.97
2018-08-18T14:01:33.355Z,3.70
2018-08-18T14:04:01.380Z,4.67
2018-08-18T14:06:29.871Z,3.05
2018-08-18T14:09:01.797Z,3.95
2018-08-18T14:11:30.912Z,6.60
2018-08-18T14:13:59.871Z,4.50
2018-08-18T14:16:28.637Z,4.50
2018-08-18T14:18:56.838Z,3.98
2018-08-18T14:21:24.861Z,4.28
2018-08-18T14:23:52.888Z,4.30
2018-08-18T14:26:20.920Z,5.15
2018-08-18T14:28:48.936Z,3.83
2018-08-18T14:31:16.956Z,4.60
2018-08-18T14:33:44.972Z,4.70
2018-08-18T14:36:14.060Z,4.80
2018-08-18T14:38:43.787Z,5.55
2018-08-18T14:41:12.344Z,3.97
2018-08-18T14:43:41.672Z,5.37
2018-08-18T14:46:12.329Z,6.67
2018-08-18T14:48:40.288Z,4.22
2018-08-18T14:51:08.740Z,5.35
2018-08-18T14:53:40.420Z,4.53
2018-08-18T14:56:08.600Z,3.67
2018-08-18T14:58:36.812Z,5.42
2018-08-18T15:01:10.622Z,3.90
2018-08-18T15:03:39.036Z,5.67
2018-08-18T15:06:07.069Z,5.45
2018-08-18T15:08:35.117Z,6.10
2018-08-18T15:11:03.161Z,6.22
2018-08-18T15:13:31.212Z,6.75
2018-08-18T15:15:59.247Z,4.30
2018-08-18T15:18:27.289Z,5.90
2018-08-18T15:20:55.328Z,4.72
2018-08-18T15:23:23.319Z,6.00
2018-08-18T15:25:51.344Z,4.70
2018-08-18T15:28:20.427Z,3.52
2018-08-18T15:30:49.841Z,4.58
2018-08-18T15:33:19.971Z,4.22
2018-08-18T15:35:48.004Z,5.15
2018-08-18T15:38:16.052Z,5.15
2018-08-18T15:40:44.192Z,4.50
2018-08-18T15:43:12.259Z,5.10
2018-08-18T15:46:02.553Z,5.45
2018-08-18T15:48:30.908Z,5.47
2018-08-18T15:50:58.944Z,6.00
2018-08-18T15:53:42.555Z,6.30
2018-08-18T15:56:10.617Z,5.00
2018-08-18T15:58:38.753Z,4.10
2018-08-18T16:01:06.815Z,4.20
2018-08-18T16:03:34.781Z,5.20
2018-08-18T16:06:02.818Z,3.98
2018-08-18T16:08:30.863Z,5.05
2018-08-18T16:10:58.881Z,4.17
2018-08-18T16:13:26.901Z,4.95
2018-08-18T16:15:54.904Z,4.80
2018-08-18T16:18:22.944Z,5.40
2018-08-18T16:20:50.952Z,5.03
2018-08-18T16:23:26.011Z,6.03
2018-08-18T16:25:54.263Z,5.80
2018-08-18T16:28:29.367Z,5.50
2018-08-18T16:30:57.395Z,6.50
2018-08-18T16:33:25.414Z,5.65
2018-08-18T16:35:53.412Z,5.42
2018-08-18T16:38:21.452Z,4.80
2018-08-18T16:40:49.448Z,5.28
2018-08-18T16:43:17.499Z,4.78
2018-08-18T16:45:45.543Z,5.15
2018-08-18T16:48:13.634Z,6.80
2018-08-18T16:50:42.346Z,4.92
2018-08-18T16:53:11.521Z,4.80
2018-08-18T16:55:40.876Z,5.53
2018-08-18T16:58:08.896Z,5.10
2018-08-18T17:00:54.333Z,5.47
2018-08-18T17:03:30.267Z,4.40
2018-08-18T17:05:59.089Z,7.45
2018-08-18T17:08:27.399Z,6.40
2018-08-18T17:10:55.357Z,4.42
2018-08-18T17:13:23.427Z,6.40
2018-08-18T17:15:51.646Z,4.97
2018-08-18T17:18:19.652Z,7.10
2018-08-18T17:20:52.195Z,5.35
2018-08-18T17:23:20.229Z,5.40
2018-08-18T17:25:48.263Z,4.00
2018-08-18T17:28:16.315Z,5.25
2018-08-18T17:30:44.811Z,4.33
2018-08-18T17:33:12.965Z,4.97
2018-08-18T17:35:41.102Z,6.75
2018-08-18T17:38:09.202Z,4.45
2018-08-18T17:40:37.296Z,3.83
2018-08-18T17:43:05.331Z,4.75
2018-08-18T17:45:37.591Z,3.10
2018-08-18T17:48:05.600Z,3.40
2018-08-18T17:50:33.790Z,4.03
2018-08-18T17:53:01.832Z,5.30
2018-08-18T17:55:29.858Z,3.67
2018-08-18T17:57:57.881Z,5.03
2018-08-18T18:00:25.938Z,4.50
2018-08-18T18:02:55.930Z,4.83
2018-08-18T18:05:28.734Z,3.85
2018-08-18T18:07:59.164Z,4.97
2018-08-18T18:10:29.480Z,5.53
2018-08-18T18:12:57.495Z,4.80
2018-08-18T18:15:31.971Z,5.03
2018-08-18T18:17:59.980Z,3.72
2018-08-18T18:20:29.233Z,5.17
2018-08-18T18:22:57.244Z,6.00
2018-08-18T18:25:25.272Z,4.58
2018-08-18T18:27:54.660Z,7.70
2018-08-18T18:30:26.337Z,5.28
2018-08-18T18:32:54.503Z,5.55
2018-08-18T18:35:23.720Z,4.87
2018-08-18T18:37:52.195Z,4.90
2018-08-18T18:40:20.200Z,6.13
2018-08-18T18:42:48.235Z,6.80
2018-08-18T18:45:16.253Z,4.43
2018-08-18T18:47:45.199Z,7.50
2018-08-18T18:50:14.376Z,6.80
2018-08-18T18:52:42.707Z,6.28
2018-08-18T18:55:10.747Z,4.97
2018-08-18T18:57:43.547Z,7.20
2018-08-18T19:00:11.735Z,4.75
2018-08-18T19:02:42.932Z,6.17
2018-08-18T19:05:19.897Z,7.35
2018-08-18T19:07:55.032Z,6.62
2018-08-18T19:10:23.725Z,5.47
2018-08-18T19:12:53.248Z,5.28
2018-08-18T19:15:21.416Z,6.20
2018-08-18T19:17:49.439Z,5.33
2018-08-18T19:20:23.448Z,7.10
2018-08-18T19:22:56.463Z,6.08
2018-08-18T19:25:24.488Z,6.80
2018-08-18T19:27:52.540Z,6.62
2018-08-18T19:30:20.568Z,5.05
2018-08-18T19:32:50.117Z,6.78
2018-08-18T19:35:21.299Z,6.95
2018-08-18T19:37:52.378Z,5.83
2018-08-18T19:40:21.019Z,6.25
2018-08-18T19:42:49.176Z,5.97
2018-08-18T19:45:17.204Z,5.95
2018-08-18T19:47:46.252Z,7.10
2018-08-18T19:50:14.619Z,6.60
2018-08-18T19:52:42.661Z,5.87
2018-08-18T19:55:11.123Z,5.93
2018-08-18T19:57:39.800Z,6.90
2018-08-18T20:00:15.316Z,6.62
2018-08-18T20:02:49.538Z,6.00
2018-08-18T20:05:18.553Z,6.23
2018-08-18T20:07:46.727Z,7.08
2018-08-18T20:10:14.756Z,6.58
2018-08-18T20:12:43.180Z,6.15
2018-08-18T20:15:11.212Z,8.47
2018-08-18T20:17:39.421Z,6.07
2018-08-18T20:20:07.481Z,7.05
2018-08-18T20:22:35.531Z,5.42
2018-08-18T20:25:04.260Z,7.65
2018-08-18T20:27:32.536Z,7.00
2018-08-18T20:30:00.575Z,12.13
2018-08-18T20:32:28.617Z,9.00
2018-08-18T20:34:56.645Z,7.58
2018-08-18T20:37:24.681Z,6.30
2018-08-18T20:39:52.727Z,7.23
2018-08-18T20:42:27.379Z,6.40
2018-08-18T20:44:57.516Z,8.68
2018-08-18T20:47:26.716Z,6.40
2018-08-18T20:49:55.232Z,7.78
2018-08-18T20:52:23.252Z,7.67
2018-08-18T20:54:51.446Z,6.95
2018-08-18T20:57:20.331Z,11.20
2018-08-18T20:59:48.765Z,7.53
2018-08-18T21:02:17.009Z,9.83
2018-08-18T21:04:49.326Z,9.93
2018-08-18T21:07:17.348Z,7.83
2018-08-18T21:09:45.364Z,9.58
2018-08-18T21:12:13.396Z,7.97
2018-08-18T21:14:41.464Z,8.70
2018-08-18T21:17:09.504Z,10.82
2018-08-18T21:19:37.524Z,9.95
2018-08-18T21:22:05.548Z,9.40
2018-08-18T21:24:33.564Z,8.23
2018-08-18T21:27:01.581Z,9.08
2018-08-18T21:29:29.604Z,9.73
2018-08-18T21:31:57.613Z,8.80
2018-08-18T21:34:25.703Z,10.53
2018-08-18T21:36:53.737Z,9.30
2018-08-18T21:39:21.772Z,12.43
2018-08-18T21:41:49.844Z,9.93
2018-08-18T21:44:17.953Z,10.75
2018-08-18T21:46:45.976Z,10.80
2018-08-18T21:49:13.999Z,9.53
2018-08-18T21:51:42.003Z,10.68
2018-08-18T21:54:10.039Z,10.70
2018-08-18T21:56:40.286Z,10.90
2018-08-18T21:59:09.683Z,11.93
2018-08-18T22:01:37.696Z,11.00
2018-08-18T22:04:06.069Z,11.70
2018-08-18T22:06:34.154Z,11.45
2018-08-18T22:09:20.916Z,12.90
2018-08-18T22:11:48.976Z,11.93
2018-08-18T22:14:17.891Z,11.93
2018-08-18T22:16:51.416Z,11.60
2018-08-18T22:19:20.088Z,12.50
2018-08-18T22:21:48.105Z,12.15
2018-08-18T22:24:16.195Z,13.15
2018-08-18T22:26:44.229Z,14.85
2018-08-18T22:29:12.295Z,11.70
2018-08-18T22:31:40.318Z,11.70
2018-08-18T22:34:08.368Z,12.10
2018-08-18T22:36:37.152Z,12.98
2018-08-18T22:39:07.749Z,12.10
2018-08-18T22:41:35.802Z,11.50
2018-08-18T22:44:03.994Z,13.40
2018-08-18T22:46:32.037Z,12.80
2018-08-18T22:49:00.091Z,12.90
2018-08-18T22:51:28.117Z,13.22
2018-08-18T22:53:56.929Z,12.78
2018-08-18T22:56:30.407Z,12.10
2018-08-18T22:59:03.629Z,12.27
2018-08-18T23:01:32.404Z,12.20
2018-08-18T23:04:00.803Z,12.43
2018-08-18T23:06:30.788Z,12.82
2018-08-18T23:08:58.837Z,12.90
2018-08-18T23:11:26.865Z,12.50
2018-08-18T23:13:54.915Z,12.90
2018-08-18T23:16:22.943Z,13.88
2018-08-18T23:18:50.973Z,13.98
2018-08-18T23:21:25.299Z,13.53
2018-08-18T23:23:53.338Z,13.50
2018-08-18T23:26:21.376Z,13.07
2018-08-18T23:28:49.431Z,13.95
2018-08-18T23:31:17.471Z,14.73
2018-08-18T23:33:45.516Z,13.90
2018-08-18T23:36:13.560Z,13.83
2018-08-18T23:38:45.145Z,13.88
2018-08-18T23:41:13.199Z,15.05
2018-08-18T23:43:41.245Z,14.10
2018-08-18T23:46:09.282Z,15.08
2018-08-18T23:48:37.351Z,14.30
2018-08-18T23:51:05.528Z,14.30
2018-08-18T23:53:33.838Z,14.50
2018-08-18T23:56:01.880Z,15.32
2018-08-18T23:58:30.447Z,14.97
